createdAt,value
2019-03-03T00:00:36.068Z,100653.46
2019-03-03T00:03:06.514Z,100654.83
2019-03-03T00:05:36.973Z,100648.20
2019-03-03T00:08:07.402Z,100641.98
2019-03-03T00:10:37.799Z,100636.23
2019-03-03T00:13:09.305Z,100638.36
2019-03-03T00:15:39.641Z,100631.77
2019-03-03T00:18:09.986Z,100621.17
2019-03-03T00:20:40.336Z,100610.61
2019-03-03T00:23:10.679Z,100623.75
2019-03-03T00:25:41.022Z,100615.92
2019-03-03T00:28:11.365Z,100608.94
2019-03-03T00:30:41.743Z,100615.17
2019-03-03T00:33:12.113Z,100605.50
2019-03-03T00:35:42.455Z,100613.02
2019-03-03T00:38:14.448Z,100610.41
2019-03-03T00:40:52.580Z,100605.98
2019-03-03T00:43:33.526Z,100602.38
2019-03-03T00:46:21.949Z,100602.77
2019-03-03T00:48:53.943Z,100603.11
2019-03-03T00:51:34.852Z,100596.02
2019-03-03T00:54:16.209Z,100606.19
2019-03-03T00:56:48.204Z,100603.91
2019-03-03T00:59:36.519Z,100596.45
2019-03-03T01:02:08.806Z,100597.34
2019-03-03T01:04:49.630Z,100605.01
2019-03-03T01:07:21.573Z,100611.78
2019-03-03T01:09:53.555Z,100602.31
2019-03-03T01:12:42.195Z,100596.66
2019-03-03T01:15:17.255Z,100587.14
2019-03-03T01:17:49.220Z,100591.75
2019-03-03T01:20:21.217Z,100588.98
2019-03-03T01:22:58.948Z,100595.33
2019-03-03T01:25:29.292Z,100592.58
2019-03-03T01:27:59.831Z,100589.73
2019-03-03T01:30:30.172Z,100586.83
2019-03-03T01:33:00.533Z,100587.03
2019-03-03T01:35:30.848Z,100584.53
2019-03-03T01:38:01.107Z,100585.99
2019-03-03T01:40:31.411Z,100569.53
2019-03-03T01:43:01.741Z,100560.55
2019-03-03T01:45:32.386Z,100561.55
2019-03-03T01:48:02.743Z,100553.80
2019-03-03T01:50:33.093Z,100552.28
2019-03-03T01:53:03.374Z,100552.89
2019-03-03T01:55:33.668Z,100550.80
2019-03-03T01:58:03.994Z,100553.06
2019-03-03T02:00:35.125Z,100553.64
2019-03-03T02:03:05.395Z,100555.48
2019-03-03T02:05:35.670Z,100552.49
2019-03-03T02:08:05.928Z,100551.19
2019-03-03T02:10:36.200Z,100554.75
2019-03-03T02:13:07.221Z,100546.13
2019-03-03T02:15:37.557Z,100541.28
2019-03-03T02:18:07.826Z,100534.73
2019-03-03T02:20:38.163Z,100532.11
2019-03-03T02:23:08.466Z,100521.59
2019-03-03T02:25:38.818Z,100521.11
2019-03-03T02:28:09.084Z,100514.52
2019-03-03T02:30:39.374Z,100517.55
2019-03-03T02:33:09.826Z,100509.61
2019-03-03T02:35:41.194Z,100511.68
2019-03-03T02:38:11.458Z,100515.47
2019-03-03T02:40:41.738Z,100513.36
2019-03-03T02:43:12.020Z,100507.63
2019-03-03T02:45:42.313Z,100501.80
2019-03-03T02:48:12.684Z,100499.95
2019-03-03T02:50:43.030Z,100494.59
2019-03-03T02:53:13.365Z,100487.42
2019-03-03T02:55:43.724Z,100488.24
2019-03-03T02:58:14.052Z,100468.56
2019-03-03T03:00:45.961Z,100487.33
2019-03-03T03:03:19.383Z,100475.48
2019-03-03T03:05:52.932Z,100474.59
2019-03-03T03:08:30.714Z,100467.44
2019-03-03T03:11:05.344Z,100474.23
2019-03-03T03:13:40.799Z,100473.30
2019-03-03T03:16:15.410Z,100470.56
2019-03-03T03:18:48.463Z,100459.20
2019-03-03T03:21:20.371Z,100465.55
2019-03-03T03:23:52.296Z,100451.44
2019-03-03T03:26:24.241Z,100468.21
2019-03-03T03:29:05.344Z,100464.31
2019-03-03T03:31:37.275Z,100449.02
2019-03-03T03:34:09.209Z,100447.99
2019-03-03T03:36:59.551Z,100450.50
2019-03-03T03:39:47.779Z,100455.28
2019-03-03T03:42:19.791Z,100454.19
2019-03-03T03:45:00.639Z,100440.13
2019-03-03T03:47:38.795Z,100437.33
2019-03-03T03:50:13.756Z,100420.95
2019-03-03T03:52:55.006Z,100418.22
2019-03-03T03:55:26.996Z,100403.37
2019-03-03T03:58:05.104Z,100399.14
2019-03-03T04:00:39.974Z,100402.75
2019-03-03T04:03:28.238Z,100406.67
2019-03-03T04:06:00.224Z,100401.34
2019-03-03T04:08:35.352Z,100396.50
2019-03-03T04:11:19.623Z,100389.39
2019-03-03T04:13:55.242Z,100386.06
2019-03-03T04:16:30.084Z,100382.35
2019-03-03T04:19:02.015Z,100379.93
2019-03-03T04:21:39.654Z,100375.88
2019-03-03T04:24:27.927Z,100368.73
2019-03-03T04:27:16.011Z,100371.25
2019-03-03T04:29:53.649Z,100362.44
2019-03-03T04:32:40.726Z,100355.20
2019-03-03T04:35:16.061Z,100353.55
2019-03-03T04:37:57.352Z,100353.98
2019-03-03T04:40:35.017Z,100354.19
2019-03-03T04:43:09.585Z,100365.41
2019-03-03T04:45:41.583Z,100362.61
2019-03-03T04:48:28.849Z,100366.34
2019-03-03T04:51:17.205Z,100365.92
2019-03-03T04:54:05.625Z,100360.38
2019-03-03T04:56:46.301Z,100360.58
2019-03-03T04:59:23.938Z,100360.44
2019-03-03T05:02:01.811Z,100355.38
2019-03-03T05:04:36.660Z,100353.86
2019-03-03T05:07:08.664Z,100347.15
2019-03-03T05:09:49.070Z,100344.44
2019-03-03T05:12:21.298Z,100340.55
2019-03-03T05:14:53.285Z,100343.59
2019-03-03T05:17:41.673Z,100343.77
2019-03-03T05:20:16.633Z,100340.16
2019-03-03T05:22:46.911Z,100335.66
2019-03-03T05:25:17.190Z,100331.08
2019-03-03T05:27:47.481Z,100333.69
2019-03-03T05:30:17.749Z,100329.11
2019-03-03T05:32:48.065Z,100327.78
2019-03-03T05:35:18.702Z,100325.45
2019-03-03T05:37:49.050Z,100320.98
2019-03-03T05:40:19.410Z,100319.87
2019-03-03T05:42:49.789Z,100320.64
2019-03-03T05:45:20.050Z,100314.00
2019-03-03T05:47:50.395Z,100311.52
2019-03-03T05:50:21.550Z,100312.83
2019-03-03T05:52:52.554Z,100310.34
2019-03-03T05:55:23.503Z,100312.41
2019-03-03T05:57:53.885Z,100316.13
2019-03-03T06:00:24.159Z,100312.63
2019-03-03T06:02:55.563Z,100306.67
2019-03-03T06:05:25.964Z,100307.79
2019-03-03T06:07:56.239Z,100305.75
2019-03-03T06:10:26.499Z,100299.83
2019-03-03T06:12:56.783Z,100299.67
2019-03-03T06:15:27.925Z,100300.91
2019-03-03T06:17:58.287Z,100301.41
2019-03-03T06:20:28.634Z,100302.31
2019-03-03T06:22:58.910Z,100305.69
2019-03-03T06:25:29.169Z,100303.94
2019-03-03T06:27:59.559Z,100305.17
2019-03-03T06:30:29.908Z,100291.48
2019-03-03T06:33:00.191Z,100291.94
2019-03-03T06:35:30.583Z,100286.57
2019-03-03T06:38:00.925Z,100290.38
2019-03-03T06:40:31.219Z,100280.20
2019-03-03T06:43:01.481Z,100279.27
2019-03-03T06:45:31.814Z,100279.05
2019-03-03T06:48:02.080Z,100274.99
2019-03-03T06:50:32.453Z,100267.05
2019-03-03T06:53:02.745Z,100255.02
2019-03-03T06:55:33.014Z,100241.50
2019-03-03T06:58:03.282Z,100256.45
2019-03-03T07:00:34.563Z,100258.02
2019-03-03T07:03:04.932Z,100265.50
2019-03-03T07:05:35.267Z,100270.84
2019-03-03T07:08:05.646Z,100268.78
2019-03-03T07:10:35.998Z,100265.52
2019-03-03T07:13:06.309Z,100266.76
2019-03-03T07:15:37.416Z,100258.92
2019-03-03T07:18:07.767Z,100253.11
2019-03-03T07:20:38.154Z,100254.92
2019-03-03T07:23:08.495Z,100231.64
2019-03-03T07:25:38.774Z,100219.09
2019-03-03T07:28:09.281Z,100221.22
2019-03-03T07:30:39.668Z,100219.92
2019-03-03T07:33:11.601Z,100230.66
2019-03-03T07:35:42.046Z,100235.19
2019-03-03T07:38:12.420Z,100239.97
2019-03-03T07:40:42.709Z,100234.39
2019-03-03T07:43:13.102Z,100230.77
2019-03-03T07:45:43.497Z,100240.84
2019-03-03T07:48:13.840Z,100232.14
2019-03-03T07:50:44.209Z,100230.61
2019-03-03T07:53:14.491Z,100236.59
2019-03-03T07:55:44.767Z,100234.59
2019-03-03T07:58:15.111Z,100237.47
2019-03-03T08:00:46.471Z,100227.12
2019-03-03T08:03:16.747Z,100237.05
2019-03-03T08:05:47.109Z,100239.83
2019-03-03T08:08:17.394Z,100238.56
2019-03-03T08:10:47.763Z,100224.74
2019-03-03T08:13:18.161Z,100212.63
2019-03-03T08:15:51.018Z,100214.51
2019-03-03T08:18:21.518Z,100212.89
2019-03-03T08:20:51.866Z,100210.14
2019-03-03T08:23:22.150Z,100204.19
2019-03-03T08:25:52.506Z,100207.30
2019-03-03T08:28:22.765Z,100199.87
2019-03-03T08:30:53.028Z,100194.80
2019-03-03T08:33:23.383Z,100187.98
2019-03-03T08:35:53.699Z,100195.59
2019-03-03T08:38:24.025Z,100195.05
2019-03-03T08:40:54.378Z,100189.48
2019-03-03T08:51:09.249Z,100181.44
2019-03-03T09:01:24.091Z,100175.63
2019-03-03T09:08:12.083Z,100165.59
2019-03-03T09:10:50.208Z,100159.56
2019-03-03T09:13:22.159Z,100151.02
2019-03-03T09:16:12.868Z,100160.64
2019-03-03T09:18:50.542Z,100168.82
2019-03-03T09:21:38.987Z,100170.56
2019-03-03T09:24:27.092Z,100171.78
2019-03-03T09:27:17.317Z,100168.72
2019-03-03T09:29:54.980Z,100170.27
2019-03-03T09:32:36.643Z,100165.38
2019-03-03T09:35:20.541Z,100149.74
2019-03-03T09:38:04.831Z,100152.73
2019-03-03T09:40:45.794Z,100153.74
2019-03-03T09:43:22.960Z,100154.38
2019-03-03T09:45:56.872Z,100140.39
2019-03-03T09:48:31.709Z,100136.61
2019-03-03T09:51:10.836Z,100140.65
2019-03-03T09:53:54.638Z,100130.92
2019-03-03T09:56:40.775Z,100134.57
2019-03-03T10:03:05.757Z,100125.09
2019-03-03T10:05:48.250Z,100115.33
2019-03-03T10:08:26.853Z,100105.79
2019-03-03T10:15:29.983Z,100120.17
2019-03-03T10:18:18.359Z,100108.37
2019-03-03T10:20:59.875Z,100106.62
2019-03-03T10:38:49.595Z,100122.16
2019-03-03T10:41:25.954Z,100116.73
2019-03-03T10:44:00.681Z,100122.92
2019-03-03T10:46:47.905Z,100107.27
2019-03-03T10:49:42.468Z,100108.63
2019-03-03T10:52:27.474Z,100104.91
2019-03-03T10:55:08.176Z,100086.86
2019-03-03T10:57:44.488Z,100097.16
2019-03-03T11:00:30.023Z,100076.95
2019-03-03T11:11:39.664Z,100066.17
2019-03-03T11:14:20.479Z,100073.00
2019-03-03T11:16:52.633Z,100072.98
2019-03-03T11:19:38.123Z,100071.97
2019-03-03T11:22:12.955Z,100065.95
2019-03-03T11:24:44.998Z,100052.53
2019-03-03T11:27:19.663Z,100053.41
2019-03-03T11:29:51.641Z,100049.46
2019-03-03T11:32:29.760Z,100035.14
2019-03-03T11:35:01.977Z,100022.70
2019-03-03T11:37:37.527Z,100035.02
2019-03-03T11:40:13.128Z,100026.63
2019-03-03T11:43:01.671Z,100033.87
2019-03-03T11:45:36.625Z,100024.80
2019-03-03T11:48:14.523Z,100030.31
2019-03-03T11:50:52.199Z,100028.91
2019-03-03T11:53:31.711Z,100026.38
2019-03-03T11:56:12.895Z,100030.91
2019-03-03T11:59:03.076Z,100031.13
2019-03-03T12:01:47.974Z,100021.54
2019-03-03T12:04:28.936Z,100030.72
2019-03-03T12:07:00.914Z,100036.85
2019-03-03T12:09:52.258Z,99998.94
2019-03-03T12:12:40.328Z,100021.38
2019-03-03T12:15:21.103Z,100021.98
2019-03-03T12:18:09.213Z,100015.25
2019-03-03T12:20:41.928Z,100007.23
2019-03-03T12:23:19.635Z,100008.38
2019-03-03T12:25:54.018Z,100009.05
2019-03-03T12:28:42.132Z,99991.97
2019-03-03T12:31:15.466Z,100005.67
2019-03-03T12:33:49.023Z,100001.86
2019-03-03T12:36:37.273Z,100000.20
2019-03-03T12:39:09.376Z,100005.56
2019-03-03T12:41:51.522Z,100002.60
2019-03-03T12:44:26.287Z,99998.05
2019-03-03T12:47:06.915Z,99991.73
2019-03-03T12:49:55.338Z,99985.45
2019-03-03T12:52:39.475Z,100006.47
2019-03-03T12:55:20.529Z,99999.61
2019-03-03T12:57:52.400Z,100000.05
2019-03-03T13:00:36.342Z,100006.25
2019-03-03T13:03:24.931Z,99995.94
2019-03-03T13:06:13.345Z,99994.50
2019-03-03T13:08:59.402Z,99996.95
2019-03-03T13:11:30.910Z,100001.88
2019-03-03T13:14:05.888Z,99982.35
2019-03-03T13:16:40.847Z,99978.34
2019-03-03T13:19:18.495Z,99985.07
2019-03-03T13:22:06.683Z,99987.88
2019-03-03T13:24:38.788Z,99992.05
2019-03-03T13:27:10.790Z,99981.61
2019-03-03T13:29:42.886Z,99995.43
2019-03-03T13:32:17.839Z,99997.23
2019-03-03T13:34:50.990Z,99992.35
2019-03-03T13:37:37.307Z,99991.47
2019-03-03T13:40:13.748Z,99997.14
2019-03-03T13:42:45.713Z,99990.59
2019-03-03T13:45:16.000Z,100004.48
2019-03-03T13:47:46.255Z,100004.60
2019-03-03T13:50:16.613Z,99990.33
2019-03-03T13:52:46.964Z,99991.20
2019-03-03T13:55:17.504Z,99997.78
2019-03-03T13:57:47.770Z,100001.69
2019-03-03T14:36:22.414Z,99979.30
2019-03-03T15:02:53.594Z,99966.98
2019-03-03T15:09:24.618Z,99956.67
2019-03-03T15:21:59.151Z,99947.91
2019-03-03T15:24:32.581Z,99944.11
2019-03-03T15:27:03.221Z,99948.55
2019-03-03T15:29:33.511Z,99948.19
2019-03-03T15:32:03.828Z,99938.86
2019-03-03T15:45:57.430Z,99931.50
2019-03-03T16:16:44.313Z,99933.06
2019-03-03T16:57:02.266Z,99906.48
2019-03-03T16:59:35.118Z,99910.56
2019-03-03T17:09:16.955Z,99899.07
2019-03-03T17:11:47.709Z,99905.16
2019-03-03T17:14:18.050Z,99896.32
2019-03-03T17:24:32.491Z,99905.58
2019-03-03T17:27:04.640Z,99885.59
2019-03-03T17:29:34.866Z,99900.44
2019-03-03T17:32:05.325Z,99901.98
2019-03-03T17:42:37.236Z,99889.30
2019-03-03T17:45:34.292Z,99890.63
2019-03-03T17:48:06.174Z,99897.09
2019-03-03T17:54:36.578Z,99889.09
2019-03-03T17:57:07.064Z,99882.78
2019-03-03T17:59:42.102Z,99888.41
2019-03-03T18:02:19.538Z,99880.20
2019-03-03T18:05:41.923Z,99879.72
2019-03-03T18:08:12.355Z,99865.36
2019-03-03T18:11:07.340Z,99858.81
2019-03-03T18:13:37.878Z,99863.73
2019-03-03T18:16:09.100Z,99870.11
2019-03-03T18:18:39.461Z,99855.94
2019-03-03T18:21:10.308Z,99850.33
2019-03-03T18:28:03.557Z,99853.08
2019-03-03T18:30:35.001Z,99848.39
2019-03-03T18:33:05.340Z,99841.09
2019-03-03T18:35:57.820Z,99844.39
2019-03-03T18:43:01.559Z,99836.33
2019-03-03T18:49:51.328Z,99832.33
2019-03-03T18:53:11.008Z,99824.98
2019-03-03T18:56:11.377Z,99823.17
2019-03-03T19:14:30.168Z,99807.02
2019-03-03T19:17:00.594Z,99792.73
2019-03-03T19:19:32.913Z,99802.83
2019-03-03T19:22:04.100Z,99794.07
2019-03-03T19:24:37.365Z,99792.17
2019-03-03T19:27:07.817Z,99798.27
2019-03-03T19:29:40.170Z,99793.79
2019-03-03T19:32:11.494Z,99787.25
2019-03-03T19:34:47.629Z,99798.84
2019-03-03T19:37:23.378Z,99797.82
2019-03-03T19:39:54.138Z,99791.33
2019-03-03T19:42:24.626Z,99789.71
2019-03-03T19:44:55.083Z,99785.15
2019-03-03T19:47:25.399Z,99784.30
2019-03-03T19:49:55.593Z,99783.45
2019-03-03T19:52:28.755Z,99783.25
2019-03-03T19:54:58.229Z,99773.08
2019-03-03T19:57:31.094Z,99784.02
2019-03-03T20:00:04.173Z,99764.72
2019-03-03T20:02:37.026Z,99765.48
2019-03-03T20:05:07.295Z,99749.58
2019-03-03T20:07:38.519Z,99772.63
2019-03-03T20:10:15.674Z,99762.13
2019-03-03T20:12:48.349Z,99767.66
2019-03-03T20:15:23.747Z,99765.19
2019-03-03T20:24:50.919Z,99756.80
2019-03-03T20:27:24.104Z,99732.16
2019-03-03T20:32:47.521Z,99739.31
2019-03-03T20:53:47.062Z,99739.69
2019-03-03T20:56:18.857Z,99727.48
2019-03-03T20:58:53.993Z,99725.98
2019-03-03T21:01:24.514Z,99731.40
2019-03-03T21:03:54.800Z,99720.95
2019-03-03T21:06:25.075Z,99706.74
2019-03-03T21:08:55.384Z,99710.86
2019-03-03T21:11:26.206Z,99709.13
2019-03-03T21:13:56.907Z,99714.00
2019-03-03T21:16:27.351Z,99707.03
2019-03-03T21:18:57.810Z,99720.06
2019-03-03T21:21:28.594Z,99710.09
2019-03-03T21:28:27.766Z,99703.34
2019-03-03T21:30:59.013Z,99682.95
2019-03-03T21:33:29.278Z,99684.77
2019-03-03T21:36:30.932Z,99684.01
2019-03-03T21:39:38.601Z,99666.03
2019-03-03T21:42:08.926Z,99682.77
2019-03-03T21:45:15.090Z,99672.02
2019-03-03T21:47:47.510Z,99673.34
2019-03-03T21:50:19.787Z,99681.25
2019-03-03T21:52:50.614Z,99671.17
2019-03-03T21:55:21.015Z,99669.17
2019-03-03T21:57:51.354Z,99663.73
2019-03-03T22:00:27.427Z,99664.13
2019-03-03T22:02:57.835Z,99659.37
2019-03-03T22:05:31.956Z,99658.63
2019-03-03T22:08:02.226Z,99657.57
2019-03-03T22:10:33.630Z,99661.66
2019-03-03T22:13:08.581Z,99653.87
2019-03-03T22:15:39.062Z,99652.63
2019-03-03T22:18:10.722Z,99650.23
2019-03-03T22:20:42.879Z,99642.25
2019-03-03T22:23:13.645Z,99644.52
2019-03-03T22:25:43.997Z,99650.41
2019-03-03T22:28:15.587Z,99646.91
2019-03-03T22:30:46.049Z,99642.80
2019-03-03T22:33:16.402Z,99637.77
2019-03-03T22:36:59.915Z,99640.25
2019-03-03T22:39:30.251Z,99635.50
2019-03-03T22:42:00.547Z,99629.77
2019-03-03T22:44:30.778Z,99635.67
2019-03-03T22:47:01.179Z,99628.08
2019-03-03T22:49:31.582Z,99618.75
2019-03-03T22:52:02.646Z,99623.23
2019-03-03T22:54:48.090Z,99600.28
2019-03-03T22:57:18.352Z,99617.70
2019-03-03T23:00:21.759Z,99618.66
2019-03-03T23:02:53.658Z,99617.72
2019-03-03T23:05:36.064Z,99606.38
2019-03-03T23:08:09.676Z,99606.49
2019-03-03T23:10:47.040Z,99600.67
2019-03-03T23:13:32.830Z,99604.19
2019-03-03T23:16:09.030Z,99600.47
2019-03-03T23:18:54.450Z,99602.28
2019-03-03T23:21:37.050Z,99603.52
2019-03-03T23:24:36.260Z,99600.02
2019-03-03T23:27:07.193Z,99584.20
2019-03-03T23:29:39.273Z,99594.20
2019-03-03T23:32:12.295Z,99589.27
2019-03-03T23:35:48.096Z,99593.74
2019-03-03T23:38:31.757Z,99589.34
2019-03-03T23:41:02.041Z,99574.13
2019-03-03T23:43:32.390Z,99576.03
2019-03-03T23:46:05.545Z,99568.04
2019-03-03T23:48:35.878Z,99571.48
2019-03-03T23:51:06.237Z,99569.77
2019-03-03T23:53:36.820Z,99567.16
2019-03-03T23:56:07.147Z,99567.73
2019-03-03T23:58:37.473Z,99567.29
